createdAt,value
2022-08-16T00:04:14.234Z,0
2022-08-16T00:09:16.260Z,0
2022-08-16T00:14:18.223Z,0
2022-08-16T00:19:20.213Z,0
2022-08-16T00:24:32.351Z,0
2022-08-16T00:29:35.191Z,0
2022-08-16T00:34:43.771Z,0
2022-08-16T00:39:47.861Z,0
2022-08-16T00:44:59.696Z,0.88715
2022-08-16T00:50:01.743Z,0
2022-08-16T00:55:03.746Z,0.88715
2022-08-16T01:00:10.355Z,0
2022-08-16T01:05:12.063Z,0
2022-08-16T01:10:16.058Z,0
2022-08-16T01:15:18.448Z,0.88715
2022-08-16T01:20:23.733Z,0.88715
2022-08-16T01:25:33.919Z,0
2022-08-16T01:30:40.140Z,0
2022-08-16T01:35:52.310Z,0.88715
2022-08-16T01:40:54.844Z,0.88715
2022-08-16T01:45:57.875Z,0
2022-08-16T01:51:09.506Z,0
2022-08-16T01:56:24.219Z,0.88715
2022-08-16T02:01:28.151Z,0.88715
2022-08-16T02:06:34.824Z,0.88715
2022-08-16T02:11:48.302Z,0.88715
2022-08-16T02:16:55.306Z,0
2022-08-16T02:22:07.882Z,0.88715
2022-08-16T02:27:11.435Z,0
2022-08-16T02:32:50.965Z,0
2022-08-16T02:37:56.097Z,0.88715
2022-08-16T02:42:58.140Z,0
2022-08-16T02:48:01.047Z,0.88715
2022-08-16T02:53:31.833Z,0
2022-08-16T02:58:33.339Z,0.88715
2022-08-16T03:04:39.281Z,0.88715
2022-08-16T03:09:52.684Z,0.88715
2022-08-16T03:14:54.106Z,0.88715
2022-08-16T03:19:59.957Z,0.88715
2022-08-16T03:25:04.387Z,0
2022-08-16T03:30:16.565Z,0
2022-08-16T03:35:19.777Z,0.88715
2022-08-16T03:40:23.338Z,0.88715
2022-08-16T03:45:34.463Z,0.88715
2022-08-16T03:50:36.192Z,0.88715
2022-08-16T03:55:45.711Z,0.88715
2022-08-16T04:00:47.860Z,0.88715
2022-08-16T04:06:02.228Z,0.88715
2022-08-16T04:11:03.851Z,0
2022-08-16T04:16:06.650Z,1.3463
2022-08-16T04:21:08.598Z,1.71845
2022-08-16T04:26:16.756Z,3.3184
2022-08-16T04:31:18.798Z,10.7704
2022-08-16T04:36:21.745Z,19.8256
2022-08-16T04:41:32.317Z,40.1304
2022-08-16T04:47:01.143Z,67.7752
2022-08-16T04:52:05.050Z,101.0448
2022-08-16T04:57:35.806Z,126.7348
2022-08-16T05:02:42.334Z,165.4999
2022-08-16T05:07:57.858Z,194.54615
2022-08-16T05:13:01.615Z,231.7805
2022-08-16T05:18:04.803Z,262.2282
2022-08-16T05:23:06.766Z,297.37845
2022-08-16T05:28:08.979Z,331.49615
2022-08-16T05:33:16.184Z,347.65175
2022-08-16T05:38:33.063Z,374.57775
2022-08-16T05:43:46.539Z,410.79855
2022-08-16T05:48:54.666Z,430.569
2022-08-16T05:53:58.197Z,453.64055
2022-08-16T05:59:00.054Z,461.4236
2022-08-16T06:04:03.152Z,477.3396
2022-08-16T06:09:06.304Z,500.356
2022-08-16T06:14:10.909Z,539.8779
2022-08-16T06:19:12.751Z,575.54535
2022-08-16T06:24:54.955Z,614.82765
2022-08-16T06:29:57.629Z,663.29445
2022-08-16T06:35:02.674Z,667.72125
2022-08-16T06:40:12.521Z,691.71505
2022-08-16T06:45:14.940Z,705.30735
2022-08-16T06:50:22.170Z,719.6926
2022-08-16T06:55:34.291Z,743.98115
2022-08-16T07:00:37.691Z,746.19455
2022-08-16T07:05:41.939Z,775.2598
2022-08-16T07:10:44.544Z,793.55465
2022-08-16T07:15:50.036Z,809.6551
2022-08-16T07:20:52.380Z,825.0729
2022-08-16T07:25:55.449Z,849.49075
2022-08-16T07:30:56.888Z,867.97005
2022-08-16T07:35:58.452Z,895.87345
2022-08-16T07:41:01.778Z,929.53095
2022-08-16T07:46:39.647Z,957.7481
2022-08-16T07:51:42.383Z,977.722
2022-08-16T07:56:44.247Z,1007.2303
2022-08-16T08:01:46.041Z,1039.61565
2022-08-16T08:06:50.950Z,1082.4025
2022-08-16T08:11:59.804Z,1123.47415
2022-08-16T08:17:03.156Z,1138.6162
2022-08-16T08:22:06.016Z,1193.3353
2022-08-16T08:27:08.034Z,1185.47995
2022-08-16T08:32:51.111Z,1220.50275
2022-08-16T08:38:01.581Z,1281.419
2022-08-16T08:43:11.832Z,1322.1959
2022-08-16T08:48:32.843Z,1347.24125
2022-08-16T08:53:37.551Z,1384.293
2022-08-16T08:58:39.743Z,1433.258
2022-08-16T09:03:57.619Z,1466.38115
2022-08-16T09:08:59.666Z,1484.9536
2022-08-16T09:14:01.696Z,1501.92115
2022-08-16T09:19:04.027Z,1551.49465
2022-08-16T09:24:10.090Z,1593.24895
2022-08-16T09:29:16.964Z,1613.278
2022-08-16T09:34:25.943Z,1662.8515
2022-08-16T09:39:27.648Z,1707.35355
2022-08-16T09:45:10.571Z,1743.8881
2022-08-16T09:50:22.452Z,1777.50945
2022-08-16T09:55:25.351Z,1838.94105
2022-08-16T10:00:44.393Z,1886.4856
2022-08-16T10:05:47.094Z,1915.55085
2022-08-16T10:10:48.969Z,1958.5773
2022-08-16T10:15:55.441Z,1974.52945
2022-08-16T10:21:00.454Z,2044.29745
2022-08-16T10:27:19.335Z,2071.96125
2022-08-16T10:32:30.564Z,2109.89725
2022-08-16T10:37:36.173Z,2167.4744
2022-08-16T10:42:38.183Z,2194.5107
2022-08-16T10:47:42.661Z,2236.4666
2022-08-16T10:52:44.564Z,2262.5065
2022-08-16T10:57:51.340Z,2333.6931
2022-08-16T11:03:00.712Z,2388.66895
2022-08-16T11:08:05.355Z,2419.0615
2022-08-16T11:19:03.081Z,2466.163
2022-08-16T11:24:40.124Z,2470.5518
2022-08-16T11:29:44.677Z,2471.69465
2022-08-16T11:35:09.964Z,2470.93785
2022-08-16T11:40:15.596Z,2534.04665
2022-08-16T11:45:21.013Z,2535.2998
2022-08-16T11:50:22.865Z,2557.96445
2022-08-16T11:55:24.435Z,2593.04055
2022-08-16T12:00:33.906Z,2562.4807
2022-08-16T12:05:54.321Z,2591.98715
2022-08-16T12:10:59.361Z,2586.7484
2022-08-16T12:16:04.203Z,2588.97895
2022-08-16T12:21:06.283Z,2587.35505
2022-08-16T12:26:11.526Z,2532.7101
2022-08-16T12:31:14.654Z,2581.67325
2022-08-16T12:36:18.616Z,2546.90905
2022-08-16T12:41:24.566Z,2487.89245
2022-08-16T12:46:27.421Z,2511.49835
2022-08-16T12:51:32.815Z,2456.4845
2022-08-16T12:57:01.286Z,2486.1944
2022-08-16T13:02:03.131Z,2441.5269
2022-08-16T13:07:08.560Z,2399.552
2022-08-16T13:12:10.824Z,2400.32595
2022-08-16T13:17:18.618Z,2349.92335
2022-08-16T13:22:20.942Z,2306.6573
2022-08-16T13:28:01.451Z,2184.9198
2022-08-16T13:33:12.472Z,2191.35655
2022-08-16T13:38:24.529Z,2109.87875
2022-08-16T13:43:27.212Z,2022.0935
2022-08-16T13:48:42.518Z,1948.5642
2022-08-16T13:53:54.538Z,1872.4716
2022-08-16T13:59:01.692Z,1805.72895
2022-08-16T14:04:03.441Z,1766.09675
2022-08-16T14:09:07.003Z,1690.0593
2022-08-16T14:14:08.726Z,1643.437
2022-08-16T14:19:14.071Z,1566.31185
2022-08-16T14:24:29.708Z,1487.76625
2022-08-16T14:29:32.094Z,1399.1329
2022-08-16T14:34:37.081Z,1301.44435
2022-08-16T14:39:39.595Z,1183.15625
2022-08-16T14:44:42.833Z,1048.2695
2022-08-16T14:49:44.734Z,901.17475
2022-08-16T14:54:46.631Z,740.17395
2022-08-16T14:59:48.799Z,597.15425
2022-08-16T15:04:51.217Z,470.40045
2022-08-16T15:10:00.636Z,350.5436
2022-08-16T15:15:04.254Z,258.31255
2022-08-16T15:20:08.419Z,189.3273
2022-08-16T15:25:10.839Z,138.8992
2022-08-16T15:30:57.013Z,114.06845
2022-08-16T15:36:02.346Z,90.4417
2022-08-16T15:41:04.062Z,69.3801
2022-08-16T15:46:06.264Z,38.9134
2022-08-16T15:51:10.450Z,16.70895
2022-08-16T15:56:12.344Z,5.6887
2022-08-16T16:01:15.344Z,3.3184
2022-08-16T16:06:17.801Z,1.42215
2022-08-16T16:11:22.716Z,2.3237
2022-08-16T16:16:26.757Z,0
2022-08-16T16:21:30.046Z,0.88715
2022-08-16T16:26:31.897Z,0.88715
2022-08-16T16:31:36.171Z,0.88715
2022-08-16T16:36:37.813Z,0.88715
2022-08-16T16:41:39.850Z,0.88715
2022-08-16T16:46:44.070Z,0.88715
2022-08-16T16:52:07.249Z,0.88715
2022-08-16T16:57:09.801Z,0.88715
2022-08-16T17:02:41.627Z,0.88715
2022-08-16T17:07:55.346Z,0.88715
2022-08-16T17:12:57.330Z,0.88715
2022-08-16T17:18:02.106Z,0
2022-08-16T17:23:58.662Z,0.88715
2022-08-16T17:29:10.958Z,0
2022-08-16T17:34:30.226Z,0
2022-08-16T17:39:33.101Z,0.88715
2022-08-16T17:44:34.840Z,0.88715
2022-08-16T17:49:36.406Z,0.88715
2022-08-16T17:54:38.143Z,0
2022-08-16T17:59:41.352Z,0
2022-08-16T18:04:45.322Z,0.88715
2022-08-16T18:09:52.256Z,0
2022-08-16T18:14:57.001Z,0.88715
2022-08-16T18:20:01.474Z,0
2022-08-16T18:25:03.183Z,0.88715
2022-08-16T18:30:05.054Z,0
2022-08-16T18:35:06.793Z,0
2022-08-16T18:40:08.672Z,0
2022-08-16T18:45:10.684Z,0
2022-08-16T18:50:12.410Z,0
2022-08-16T18:55:14.876Z,0
2022-08-16T19:00:17.552Z,0
2022-08-16T19:05:19.064Z,0
2022-08-16T19:10:20.937Z,0
2022-08-16T19:15:22.900Z,0
2022-08-16T19:20:24.912Z,0
2022-08-16T19:25:46.207Z,0.88715
2022-08-16T19:30:50.514Z,0
2022-08-16T19:35:52.147Z,0.88715
2022-08-16T19:40:53.604Z,0
2022-08-16T19:45:55.364Z,0
2022-08-16T19:50:57.377Z,0
2022-08-16T19:55:59.220Z,0.88715
2022-08-16T20:01:00.930Z,0
2022-08-16T20:06:02.644Z,0
2022-08-16T20:11:04.492Z,0.88715
2022-08-16T20:16:06.256Z,0
2022-08-16T20:21:08.152Z,0
2022-08-16T20:26:10.031Z,0
2022-08-16T20:31:12.071Z,0
2022-08-16T20:36:16.009Z,0
2022-08-16T20:41:18.297Z,0.88715
2022-08-16T20:46:20.183Z,0
2022-08-16T20:51:21.588Z,0
2022-08-16T20:56:23.089Z,0
2022-08-16T21:01:25.789Z,0.88715
2022-08-16T21:06:53.398Z,0
2022-08-16T21:11:56.637Z,0
2022-08-16T21:16:58.525Z,0
2022-08-16T21:22:00.678Z,0.88715
2022-08-16T21:27:02.633Z,0
2022-08-16T21:32:04.865Z,0
2022-08-16T21:37:06.641Z,0
2022-08-16T21:42:08.622Z,0
2022-08-16T21:47:10.149Z,0
2022-08-16T21:52:26.414Z,0.88715
2022-08-16T21:57:35.262Z,0.88715
2022-08-16T22:02:38.859Z,0
2022-08-16T22:07:41.216Z,0.88715
2022-08-16T22:12:43.092Z,0
2022-08-16T22:17:44.737Z,0
2022-08-16T22:22:46.411Z,0.88715
2022-08-16T22:27:47.942Z,0
2022-08-16T22:32:50.234Z,0
2022-08-16T22:38:47.833Z,0
2022-08-16T22:43:58.779Z,0
2022-08-16T22:49:00.464Z,0.88715
2022-08-16T22:54:34.231Z,0.88715
2022-08-16T22:59:50.092Z,0
2022-08-16T23:04:55.161Z,0
2022-08-16T23:09:57.011Z,0
2022-08-16T23:14:58.518Z,0.88715
2022-08-16T23:20:00.043Z,0
2022-08-16T23:25:01.750Z,0
2022-08-16T23:30:03.188Z,0
2022-08-16T23:35:05.040Z,0.88715
2022-08-16T23:40:06.627Z,0.88715
2022-08-16T23:45:08.206Z,0
2022-08-16T23:50:09.746Z,0.88715
2022-08-16T23:55:11.618Z,0
